Time,TemperatureF,DewpointF,PressureIn,WindDirection,WindDirectionDegrees,WindSpeedMPH,WindSpeedGustMPH,Humidity,HourlyPrecipIn,Conditions,Clouds,dailyrainin,SoftwareType,DateUTC
2013-02-28 00:02:00,41.9,33.2,29.71,NW,315,0.0,4.5,71,0.00,,,0.00,WUHU21523XXSP,2013-02-28 05:02:00,
2013-02-28 00:07:00,41.7,33.4,29.71,WNW,292,0.0,0.0,72,0.00,,,0.00,WUHU21523XXSP,2013-02-28 05:07:00,
2013-02-28 00:12:00,41.5,33.2,29.71,SSW,202,0.0,0.0,72,0.00,,,0.00,WUHU21523XXSP,2013-02-28 05:12:00,
2013-02-28 00:17:00,41.5,33.2,29.71,West,270,0.0,0.0,72,0.00,,,0.00,WUHU21523XXSP,2013-02-28 05:17:00,
2013-02-28 00:22:00,41.5,33.5,29.71,NW,315,0.0,0.0,73,0.00,,,0.00,WUHU21523XXSP,2013-02-28 05:22:00,
2013-02-28 00:27:00,41.4,33.3,29.71,WNW,292,1.8,1.8,73,0.00,,,0.00,WUHU21523XXSP,2013-02-28 05:27:00,
2013-02-28 00:32:00,41.4,33.3,29.71,NNE,22,0.0,1.8,73,0.00,,,0.00,WUHU21523XXSP,2013-02-28 05:32:00,
2013-02-28 00:37:00,41.2,33.2,29.71,WNW,292,0.0,0.0,73,0.00,,,0.00,WUHU21523XXSP,2013-02-28 05:37:00,
2013-02-28 00:42:00,41.2,33.2,29.71,NNW,337,0.0,0.0,73,0.00,,,0.00,WUHU21523XXSP,2013-02-28 05:42:00,
2013-02-28 00:47:00,41.0,33.0,29.71,NNW,340,3.0,3.6,73,0.00,,,0.00,WUHU21523XXSP,2013-02-28 05:47:00,
2013-02-28 00:52:00,40.8,32.8,29.71,West,270,0.0,3.6,73,0.00,,,0.00,WUHU21523XXSP,2013-02-28 05:52:00,
2013-02-28 00:57:00,40.8,32.8,29.71,WNW,292,0.0,2.2,73,0.00,,,0.00,WUHU21523XXSP,2013-02-28 05:57:00,
2013-02-28 01:02:00,40.8,32.8,29.71,SW,225,0.0,0.0,73,0.00,,,0.00,WUHU21523XXSP,2013-02-28 06:02:00,
2013-02-28 01:07:00,40.6,32.6,29.71,SW,225,0.0,1.8,73,0.00,,,0.00,WUHU21523XXSP,2013-02-28 06:07:00,
2013-02-28 01:12:00,40.6,32.6,29.71,SW,225,0.0,1.8,73,0.00,,,0.00,WUHU21523XXSP,2013-02-28 06:12:00,
2013-02-28 01:17:00,40.5,32.4,29.71,SW,225,0.0,0.0,73,0.00,,,0.00,WUHU21523XXSP,2013-02-28 06:17:00,
2013-02-28 01:22:00,40.3,32.4,29.71,WSW,247,0.0,0.0,73,0.00,,,0.00,WUHU21523XXSP,2013-02-28 06:22:00,
2013-02-28 01:27:00,40.3,32.3,29.71,SW,225,0.0,0.0,73,0.00,,,0.00,WUHU21523XXSP,2013-02-28 06:27:00,
2013-02-28 01:32:00,40.3,32.3,29.71,SW,225,0.0,0.0,73,0.00,,,0.00,WUHU21523XXSP,2013-02-28 06:32:00,
2013-02-28 01:37:00,40.3,32.3,29.71,WSW,247,0.0,0.0,73,0.00,,,0.00,WUHU21523XXSP,2013-02-28 06:37:00,
2013-02-28 01:42:00,40.3,31.9,29.71,NW,315,0.0,0.0,72,0.00,,,0.00,WUHU21523XXSP,2013-02-28 06:42:00,
2013-02-28 01:47:00,40.3,31.9,29.71,WNW,292,0.0,0.0,72,0.00,,,0.00,WUHU21523XXSP,2013-02-28 06:47:00,
2013-02-28 01:52:00,40.3,31.9,29.70,WSW,247,0.0,0.0,72,0.00,,,0.00,WUHU21523XXSP,2013-02-28 06:52:00,
2013-02-28 01:57:00,40.3,31.6,29.70,NW,315,0.0,0.0,71,0.00,,,0.00,WUHU21523XXSP,2013-02-28 06:57:00,
2013-02-28 02:02:00,40.3,31.6,29.71,WNW,292,0.0,0.0,71,0.00,,,0.00,WUHU21523XXSP,2013-02-28 07:02:00,
2013-02-28 02:07:00,40.1,31.1,29.71,West,270,1.8,1.8,70,0.00,,,0.00,WUHU21523XXSP,2013-02-28 07:07:00,
2013-02-28 02:12:00,39.9,30.9,29.70,NW,315,0.0,1.8,70,0.00,,,0.00,WUHU21523XXSP,2013-02-28 07:12:00,
2013-02-28 02:17:00,39.9,30.9,29.70,West,270,0.0,1.8,70,0.00,,,0.00,WUHU21523XXSP,2013-02-28 07:17:00,
2013-02-28 02:22:00,39.9,30.9,29.70,West,270,0.0,0.0,70,0.00,,,0.00,WUHU21523XXSP,2013-02-28 07:22:00,
2013-02-28 02:27:00,39.9,30.9,29.70,NW,315,3.4,3.4,70,0.00,,,0.00,WUHU21523XXSP,2013-02-28 07:27:00,
2013-02-28 02:32:00,39.9,30.9,29.70,NW,315,1.8,3.4,70,0.00,,,0.00,WUHU21523XXSP,2013-02-28 07:32:00,
2013-02-28 02:37:00,39.7,30.7,29.71,NW,315,0.0,1.8,70,0.00,,,0.00,WUHU21523XXSP,2013-02-28 07:37:00,
2013-02-28 02:42:00,39.6,30.6,29.71,NW,315,2.5,2.5,70,0.00,,,0.00,WUHU21523XXSP,2013-02-28 07:42:00,
2013-02-28 02:47:00,39.6,30.6,29.71,NW,315,0.0,2.5,70,0.00,,,0.00,WUHU21523XXSP,2013-02-28 07:47:00,
2013-02-28 02:52:00,39.4,30.7,29.71,West,270,0.0,0.0,71,0.00,,,0.00,WUHU21523XXSP,2013-02-28 07:52:00,
2013-02-28 02:57:00,39.4,30.7,29.71,WSW,247,0.0,0.0,71,0.00,,,0.00,WUHU21523XXSP,2013-02-28 07:57:00,
2013-02-28 03:02:00,39.4,30.7,29.71,SW,225,0.0,0.0,71,0.00,,,0.00,WUHU21523XXSP,2013-02-28 08:02:00,
2013-02-28 03:07:00,39.2,30.5,29.71,WSW,247,0.0,0.0,71,0.00,,,0.00,WUHU21523XXSP,2013-02-28 08:07:00,
2013-02-28 03:12:00,39.0,30.7,29.71,WSW,247,0.0,0.0,72,0.00,,,0.00,WUHU21523XXSP,2013-02-28 08:12:00,
2013-02-28 03:17:00,39.0,30.7,29.71,WSW,247,0.0,0.0,72,0.00,,,0.00,WUHU21523XXSP,2013-02-28 08:17:00,
2013-02-28 03:22:00,39.0,30.7,29.71,NNW,337,0.0,0.0,72,0.00,,,0.00,WUHU21523XXSP,2013-02-28 08:22:00,
2013-02-28 03:27:00,38.8,30.5,29.71,NW,315,0.0,0.0,72,0.00,,,0.00,WUHU21523XXSP,2013-02-28 08:27:00,
2013-02-28 03:32:00,38.8,30.5,29.71,NW,315,0.0,0.0,72,0.00,,,0.00,WUHU21523XXSP,2013-02-28 08:32:00,
2013-02-28 03:37:00,38.8,30.5,29.71,SW,225,0.0,1.8,72,0.00,,,0.00,WUHU21523XXSP,2013-02-28 08:37:00,
2013-02-28 03:42:00,38.8,30.5,29.71,West,270,0.0,1.8,72,0.00,,,0.00,WUHU21523XXSP,2013-02-28 08:42:00,
2013-02-28 03:47:00,38.7,30.0,29.71,NNW,337,0.0,0.0,71,0.00,,,0.00,WUHU21523XXSP,2013-02-28 08:47:00,
2013-02-28 03:52:00,38.8,30.2,29.71,SSW,202,0.0,0.0,71,0.00,,,0.00,WUHU21523XXSP,2013-02-28 08:52:00,
2013-02-28 03:57:00,38.8,29.9,29.71,SSW,202,0.0,0.0,70,0.00,,,0.00,WUHU21523XXSP,2013-02-28 08:57:00,
2013-02-28 04:02:00,38.8,29.9,29.71,SSW,202,0.0,0.0,70,0.00,,,0.00,WUHU21523XXSP,2013-02-28 09:02:00,
2013-02-28 04:07:00,38.5,29.6,29.71,SSW,202,0.0,0.0,70,0.00,,,0.00,WUHU21523XXSP,2013-02-28 09:07:00,
2013-02-28 04:12:00,38.3,29.4,29.71,SW,225,1.1,1.1,70,0.00,,,0.00,WUHU21523XXSP,2013-02-28 09:12:00,
2013-02-28 04:17:00,38.1,28.9,29.71,NW,315,0.0,1.1,69,0.00,,,0.00,WUHU21523XXSP,2013-02-28 09:17:00,
2013-02-28 04:22:00,38.1,28.9,29.71,South,180,0.0,0.0,69,0.00,,,0.00,WUHU21523XXSP,2013-02-28 09:22:00,
2013-02-28 04:27:00,37.9,28.7,29.71,South,180,0.0,0.0,69,0.00,,,0.00,WUHU21523XXSP,2013-02-28 09:27:00,
2013-02-28 04:32:00,37.9,28.7,29.71,South,180,0.0,0.0,69,0.00,,,0.00,WUHU21523XXSP,2013-02-28 09:32:00,
2013-02-28 04:37:00,37.9,28.3,29.72,WSW,247,0.0,0.9,68,0.00,,,0.00,WUHU21523XXSP,2013-02-28 09:37:00,
2013-02-28 04:42:00,37.9,28.7,29.72,NNW,337,0.0,0.9,69,0.00,,,0.00,WUHU21523XXSP,2013-02-28 09:42:00,
2013-02-28 04:47:00,37.9,28.3,29.72,NW,315,2.7,2.7,68,0.00,,,0.00,WUHU21523XXSP,2013-02-28 09:47:00,
2013-02-28 04:52:00,38.1,28.5,29.72,WNW,292,1.6,2.7,68,0.00,,,0.00,WUHU21523XXSP,2013-02-28 09:52:00,
2013-02-28 04:57:00,38.1,28.5,29.72,West,270,0.0,1.6,68,0.00,,,0.00,WUHU21523XXSP,2013-02-28 09:57:00,
2013-02-28 05:02:00,38.1,28.5,29.72,West,270,0.0,0.0,68,0.00,,,0.00,WUHU21523XXSP,2013-02-28 10:02:00,
2013-02-28 05:07:00,37.9,28.3,29.73,WSW,247,0.0,0.0,68,0.00,,,0.00,WUHU21523XXSP,2013-02-28 10:07:00,
2013-02-28 05:12:00,38.1,28.9,29.72,North,0,0.0,0.0,69,0.00,,,0.00,WUHU21523XXSP,2013-02-28 10:12:00,
2013-02-28 05:17:00,37.9,28.7,29.72,WNW,292,0.0,0.0,69,0.00,,,0.00,WUHU21523XXSP,2013-02-28 10:17:00,
2013-02-28 05:22:00,37.9,28.7,29.73,West,270,0.0,0.0,69,0.00,,,0.00,WUHU21523XXSP,2013-02-28 10:22:00,
2013-02-28 05:27:00,37.9,28.7,29.72,WSW,247,0.0,0.0,69,0.00,,,0.00,WUHU21523XXSP,2013-02-28 10:27:00,
2013-02-28 05:32:00,37.9,28.7,29.72,South,180,0.0,0.0,69,0.00,,,0.00,WUHU21523XXSP,2013-02-28 10:32:00,
2013-02-28 05:37:00,37.9,28.7,29.73,South,180,0.0,0.0,69,0.00,,,0.00,WUHU21523XXSP,2013-02-28 10:37:00,
2013-02-28 05:42:00,37.9,28.7,29.72,South,180,0.0,0.0,69,0.00,,,0.00,WUHU21523XXSP,2013-02-28 10:42:00,
2013-02-28 05:47:00,37.9,28.7,29.72,SSW,202,0.0,0.0,69,0.00,,,0.00,WUHU21523XXSP,2013-02-28 10:47:00,
2013-02-28 05:52:00,37.9,28.7,29.72,West,270,0.0,0.0,69,0.00,,,0.00,WUHU21523XXSP,2013-02-28 10:52:00,
2013-02-28 05:57:00,37.9,28.7,29.73,NW,315,0.0,0.0,69,0.00,,,0.00,WUHU21523XXSP,2013-02-28 10:57:00,
2013-02-28 06:02:00,37.9,28.7,29.73,SW,225,0.0,0.0,69,0.00,,,0.00,WUHU21523XXSP,2013-02-28 11:02:00,
2013-02-28 06:07:00,37.9,28.7,29.73,WNW,292,0.0,0.0,69,0.00,,,0.00,WUHU21523XXSP,2013-02-28 11:07:00,
2013-02-28 06:12:00,37.9,28.7,29.73,West,270,0.0,0.0,69,0.00,,,0.00,WUHU21523XXSP,2013-02-28 11:12:00,
2013-02-28 06:17:00,37.9,28.7,29.73,West,270,0.0,0.0,69,0.00,,,0.00,WUHU21523XXSP,2013-02-28 11:17:00,
2013-02-28 06:22:00,37.9,28.7,29.73,SSE,157,0.0,0.0,69,0.00,,,0.00,WUHU21523XXSP,2013-02-28 11:22:00,
2013-02-28 06:27:00,37.8,28.5,29.73,SW,225,0.0,0.0,69,0.00,,,0.00,WUHU21523XXSP,2013-02-28 11:27:00,
2013-02-28 06:32:00,37.8,28.5,29.73,WSW,247,0.0,0.0,69,0.00,,,0.00,WUHU21523XXSP,2013-02-28 11:32:00,
2013-02-28 06:37:00,37.8,28.5,29.73,SW,225,0.0,0.0,69,0.00,,,0.00,WUHU21523XXSP,2013-02-28 11:37:00,
2013-02-28 06:42:00,37.8,28.5,29.73,West,270,0.0,0.0,69,0.00,,,0.00,WUHU21523XXSP,2013-02-28 11:42:00,
2013-02-28 06:47:00,37.8,28.9,29.73,WSW,247,0.0,0.0,70,0.00,,,0.00,WUHU21523XXSP,2013-02-28 11:47:00,
2013-02-28 06:52:00,37.8,28.9,29.73,SSW,202,0.0,0.0,70,0.00,,,0.00,WUHU21523XXSP,2013-02-28 11:52:00,
2013-02-28 06:57:00,37.8,28.9,29.73,WNW,292,0.0,0.0,70,0.00,,,0.00,WUHU21523XXSP,2013-02-28 11:57:00,
2013-02-28 07:02:00,37.8,28.9,29.73,SSW,202,0.0,0.0,70,0.00,,,0.00,WUHU21523XXSP,2013-02-28 12:02:00,
2013-02-28 07:07:00,37.6,29.1,29.73,NW,315,0.0,0.0,71,0.00,,,0.00,WUHU21523XXSP,2013-02-28 12:07:00,
2013-02-28 07:12:00,37.8,29.2,29.73,NW,315,0.0,0.0,71,0.00,,,0.00,WUHU21523XXSP,2013-02-28 12:12:00,
2013-02-28 07:22:00,37.6,29.1,29.74,NNW,337,0.0,0.0,71,0.00,,,0.00,WUHU21523XXSP,2013-02-28 12:22:00,
2013-02-28 07:27:00,37.8,29.2,29.73,WSW,247,0.0,0.0,71,0.00,,,0.00,WUHU21523XXSP,2013-02-28 12:27:00,
2013-02-28 07:32:00,37.6,29.1,29.74,WNW,292,0.0,0.0,71,0.00,,,0.00,WUHU21523XXSP,2013-02-28 12:32:00,
2013-02-28 07:37:00,37.6,29.1,29.74,SW,225,0.0,0.0,71,0.00,,,0.00,WUHU21523XXSP,2013-02-28 12:37:00,
2013-02-28 07:47:00,37.6,29.1,29.74,West,270,0.0,0.0,71,0.00,,,0.00,WUHU21523XXSP,2013-02-28 12:47:00,
2013-02-28 07:52:00,37.6,29.1,29.73,SSE,157,0.0,0.0,71,0.00,,,0.00,WUHU21523XXSP,2013-02-28 12:52:00,
2013-02-28 07:57:00,37.6,29.1,29.74,NNW,337,0.0,0.0,71,0.00,,,0.00,WUHU21523XXSP,2013-02-28 12:57:00,
2013-02-28 08:02:00,37.6,29.4,29.74,NNW,337,0.0,0.0,72,0.00,,,0.00,WUHU21523XXSP,2013-02-28 13:02:00,
2013-02-28 08:07:00,37.8,29.4,29.74,NW,315,0.0,0.0,72,0.00,,,0.00,WUHU21523XXSP,2013-02-28 13:07:00,
2013-02-28 08:12:00,37.8,29.6,29.74,NW,315,0.0,0.0,72,0.00,,,0.00,WUHU21523XXSP,2013-02-28 13:12:00,
2013-02-28 08:17:00,37.9,29.7,29.74,NNW,337,0.0,0.0,72,0.00,,,0.00,WUHU21523XXSP,2013-02-28 13:17:00,
2013-02-28 08:22:00,37.9,29.4,29.74,NW,315,0.0,0.0,71,0.00,,,0.00,WUHU21523XXSP,2013-02-28 13:22:00,
2013-02-28 08:27:00,37.9,29.4,29.74,SSW,202,0.0,0.0,71,0.00,,,0.00,WUHU21523XXSP,2013-02-28 13:27:00,
2013-02-28 08:32:00,37.9,29.4,29.74,NW,315,0.0,0.0,71,0.00,,,0.00,WUHU21523XXSP,2013-02-28 13:32:00,
2013-02-28 08:42:00,38.1,29.2,29.75,NNW,337,1.1,1.1,70,0.00,,,0.00,WUHU21523XXSP,2013-02-28 13:42:00,
2013-02-28 08:52:00,38.1,28.9,29.75,NW,315,6.0,6.0,69,0.00,,,0.00,WUHU21523XXSP,2013-02-28 13:52:00,
2013-02-28 09:02:00,38.3,29.0,29.74,NNW,337,0.0,0.0,69,0.00,,,0.00,WUHU21523XXSP,2013-02-28 14:02:00,
2013-02-28 09:07:00,38.3,28.6,29.74,West,270,0.0,4.5,68,0.00,,,0.00,WUHU21523XXSP,2013-02-28 14:07:00,
2013-02-28 09:12:00,38.5,28.8,29.74,NW,315,0.0,4.5,68,0.00,,,0.00,WUHU21523XXSP,2013-02-28 14:12:00,
2013-02-28 09:17:00,38.5,28.4,29.74,NW,315,4.5,4.5,67,0.00,,,0.00,WUHU21523XXSP,2013-02-28 14:17:00,
2013-02-28 09:22:00,38.8,28.4,29.74,NNW,337,3.9,6.5,66,0.00,,,0.00,WUHU21523XXSP,2013-02-28 14:22:00,
2013-02-28 09:27:00,38.8,28.4,29.75,West,270,4.0,6.5,66,0.00,,,0.00,WUHU21523XXSP,2013-02-28 14:27:00,
2013-02-28 09:37:00,38.8,28.0,29.75,NW,319,4.0,6.7,65,0.00,,,0.00,WUHU21523XXSP,2013-02-28 14:37:00,
2013-02-28 09:42:00,39.0,28.1,29.74,NNW,329,2.7,6.5,65,0.00,,,0.00,WUHU21523XXSP,2013-02-28 14:42:00,
2013-02-28 09:52:00,39.0,27.4,29.75,NW,315,1.7,6.0,63,0.00,,,0.00,WUHU21523XXSP,2013-02-28 14:52:00,
2013-02-28 09:57:00,39.0,27.4,29.75,NW,315,2.7,2.7,63,0.00,,,0.00,WUHU21523XXSP,2013-02-28 14:57:00,
2013-02-28 10:02:00,39.0,27.4,29.75,NW,315,4.9,5.4,63,0.00,,,0.00,WUHU21523XXSP,2013-02-28 15:02:00,
2013-02-28 10:07:00,39.2,27.9,29.75,NNW,337,3.1,5.4,64,0.00,,,0.00,WUHU21523XXSP,2013-02-28 15:07:00,
2013-02-28 10:12:00,39.4,28.1,29.75,NW,315,4.7,8.1,64,0.00,,,0.00,WUHU21523XXSP,2013-02-28 15:12:00,
2013-02-28 10:17:00,39.4,27.7,29.75,NW,305,3.0,8.1,63,0.00,,,0.00,WUHU21523XXSP,2013-02-28 15:17:00,
2013-02-28 10:22:00,39.4,28.1,29.76,North,0,0.7,3.4,64,0.00,,,0.00,WUHU21523XXSP,2013-02-28 15:22:00,
2013-02-28 10:27:00,39.4,28.1,29.76,NNW,327,4.8,5.4,64,0.00,,,0.00,WUHU21523XXSP,2013-02-28 15:27:00,
2013-02-28 10:32:00,39.4,28.1,29.76,NW,315,1.6,5.4,64,0.00,,,0.00,WUHU21523XXSP,2013-02-28 15:32:00,
2013-02-28 10:37:00,39.4,28.1,29.75,North,0,6.5,6.5,64,0.00,,,0.00,WUHU21523XXSP,2013-02-28 15:37:00,
2013-02-28 10:42:00,39.4,27.7,29.75,NW,325,6.5,6.9,63,0.00,,,0.00,WUHU21523XXSP,2013-02-28 15:42:00,
2013-02-28 10:47:00,39.6,27.5,29.76,NNW,337,8.1,8.1,62,0.00,,,0.00,WUHU21523XXSP,2013-02-28 15:47:00,
2013-02-28 10:52:00,39.6,26.8,29.75,NW,315,5.1,8.1,60,0.00,,,0.00,WUHU21523XXSP,2013-02-28 15:52:00,
2013-02-28 10:57:00,39.6,26.8,29.76,West,260,2.4,8.1,60,0.00,,,0.00,WUHU21523XXSP,2013-02-28 15:57:00,
2013-02-28 11:02:00,39.6,25.9,29.76,NNW,337,7.4,7.8,58,0.00,,,0.00,WUHU21523XXSP,2013-02-28 16:02:00,
2013-02-28 11:07:00,39.7,26.5,29.76,North,0,0.0,7.8,59,0.00,,,0.00,WUHU21523XXSP,2013-02-28 16:07:00,
2013-02-28 11:12:00,39.6,26.3,29.76,NW,313,2.2,7.4,59,0.00,,,0.00,WUHU21523XXSP,2013-02-28 16:12:00,
2013-02-28 11:17:00,39.6,25.9,29.76,NW,315,4.3,4.9,58,0.00,,,0.00,WUHU21523XXSP,2013-02-28 16:17:00,
2013-02-28 11:22:00,39.7,26.5,29.76,WSW,247,0.9,4.9,59,0.00,,,0.00,WUHU21523XXSP,2013-02-28 16:22:00,
2013-02-28 11:27:00,39.7,26.1,29.76,NW,315,5.2,8.1,58,0.00,,,0.00,WUHU21523XXSP,2013-02-28 16:27:00,
2013-02-28 11:32:00,39.7,26.1,29.76,WNW,292,5.4,8.1,58,0.00,,,0.00,WUHU21523XXSP,2013-02-28 16:32:00,
2013-02-28 11:37:00,39.7,26.1,29.76,NNW,337,2.0,5.4,58,0.00,,,0.00,WUHU21523XXSP,2013-02-28 16:37:00,
2013-02-28 11:42:00,39.7,26.5,29.76,WNW,289,1.4,5.4,59,0.00,,,0.00,WUHU21523XXSP,2013-02-28 16:42:00,
2013-02-28 11:47:00,40.1,26.4,29.76,NW,315,6.0,6.9,58,0.00,,,0.00,WUHU21523XXSP,2013-02-28 16:47:00,
2013-02-28 11:52:00,40.3,27.1,29.76,NW,315,6.5,6.9,59,0.00,,,0.00,WUHU21523XXSP,2013-02-28 16:52:00,
2013-02-28 11:57:00,40.3,27.1,29.76,NW,315,3.8,6.5,59,0.00,,,0.00,WUHU21523XXSP,2013-02-28 16:57:00,
2013-02-28 12:02:00,40.3,27.1,29.76,West,270,0.0,3.8,59,0.00,,,0.00,WUHU21523XXSP,2013-02-28 17:02:00,
2013-02-28 12:07:00,40.3,27.5,29.76,NW,315,0.0,3.6,60,0.00,,,0.00,WUHU21523XXSP,2013-02-28 17:07:00,
2013-02-28 12:12:00,40.3,27.1,29.76,NW,315,6.3,6.3,59,0.00,,,0.00,WUHU21523XXSP,2013-02-28 17:12:00,
2013-02-28 12:17:00,40.1,26.9,29.75,NNW,337,6.0,6.3,59,0.00,,,0.00,WUHU21523XXSP,2013-02-28 17:17:00,
2013-02-28 12:22:00,40.3,27.1,29.76,West,270,0.0,6.0,59,0.00,,,0.00,WUHU21523XXSP,2013-02-28 17:22:00,
2013-02-28 12:27:00,40.6,27.4,29.75,NW,315,6.7,6.7,59,0.00,,,0.00,WUHU21523XXSP,2013-02-28 17:27:00,
2013-02-28 12:32:00,40.8,27.1,29.76,West,277,5.2,6.9,58,0.00,,,0.00,WUHU21523XXSP,2013-02-28 17:32:00,
2013-02-28 12:37:00,40.8,26.2,29.75,NW,315,8.5,8.5,56,0.00,,,0.00,WUHU21523XXSP,2013-02-28 17:37:00,
2013-02-28 12:47:00,40.6,26.5,29.75,NNW,337,6.9,8.3,57,0.00,,,0.00,WUHU21523XXSP,2013-02-28 17:47:00,
2013-02-28 12:52:00,40.6,26.5,29.75,NW,315,3.8,6.9,57,0.00,,,0.00,WUHU21523XXSP,2013-02-28 17:52:00,
2013-02-28 12:57:00,40.8,26.7,29.75,NW,324,2.2,3.8,57,0.00,,,0.00,WUHU21523XXSP,2013-02-28 17:57:00,
2013-02-28 13:02:00,40.8,26.7,29.75,NW,315,6.8,8.3,57,0.00,,,0.00,WUHU21523XXSP,2013-02-28 18:02:00,
2013-02-28 13:07:00,40.8,26.7,29.75,WSW,246,3.8,8.3,57,0.00,,,0.00,WUHU21523XXSP,2013-02-28 18:07:00,
2013-02-28 13:12:00,40.6,26.5,29.75,West,278,4.0,8.3,57,0.00,,,0.00,WUHU21523XXSP,2013-02-28 18:12:00,
2013-02-28 13:17:00,40.6,26.5,29.76,NW,315,3.2,6.7,57,0.00,,,0.00,WUHU21523XXSP,2013-02-28 18:17:00,
2013-02-28 13:22:00,40.6,26.5,29.76,WNW,292,0.0,5.1,57,0.00,,,0.00,WUHU21523XXSP,2013-02-28 18:22:00,
2013-02-28 13:27:00,40.6,27.0,29.76,West,266,3.1,5.8,58,0.00,,,0.00,WUHU21523XXSP,2013-02-28 18:27:00,
2013-02-28 13:32:00,40.6,27.0,29.76,NW,315,0.0,5.8,58,0.00,,,0.00,WUHU21523XXSP,2013-02-28 18:32:00,
2013-02-28 13:37:00,40.6,27.0,29.76,NNW,337,4.3,4.3,58,0.00,,,0.00,WUHU21523XXSP,2013-02-28 18:37:00,
2013-02-28 13:42:00,40.6,27.0,29.76,NNW,337,4.3,4.3,58,0.00,,,0.00,WUHU21523XXSP,2013-02-28 18:42:00,
2013-02-28 13:47:00,40.6,27.0,29.76,NW,315,0.9,4.3,58,0.00,,,0.00,WUHU21523XXSP,2013-02-28 18:47:00,
2013-02-28 13:52:00,40.6,27.0,29.76,NNW,337,0.0,2.7,58,0.00,,,0.00,WUHU21523XXSP,2013-02-28 18:52:00,
2013-02-28 14:02:00,40.8,27.1,29.76,SSW,202,0.0,1.1,58,0.00,,,0.00,WUHU21523XXSP,2013-02-28 19:02:00,
2013-02-28 14:07:00,40.8,27.1,29.76,NNW,337,4.0,4.0,58,0.00,,,0.00,WUHU21523XXSP,2013-02-28 19:07:00,
2013-02-28 14:12:00,40.8,27.1,29.76,North,10,0.8,4.0,58,0.00,,,0.00,WUHU21523XXSP,2013-02-28 19:12:00,
2013-02-28 14:17:00,40.8,27.1,29.76,West,270,0.0,1.3,58,0.00,,,0.00,WUHU21523XXSP,2013-02-28 19:17:00,
2013-02-28 14:22:00,41.0,27.3,29.76,West,270,0.0,0.0,58,0.00,,,0.00,WUHU21523XXSP,2013-02-28 19:22:00,
2013-02-28 14:27:00,41.0,26.9,29.76,SSW,202,0.0,0.0,57,0.00,,,0.00,WUHU21523XXSP,2013-02-28 19:27:00,
2013-02-28 14:32:00,40.8,27.1,29.76,SSW,202,0.9,1.6,58,0.00,,,0.00,WUHU21523XXSP,2013-02-28 19:32:00,
2013-02-28 14:37:00,40.8,26.7,29.76,NW,315,4.3,4.9,57,0.00,,,0.00,WUHU21523XXSP,2013-02-28 19:37:00,
2013-02-28 14:42:00,40.8,26.7,29.76,NW,315,2.2,4.9,57,0.00,,,0.00,WUHU21523XXSP,2013-02-28 19:42:00,
2013-02-28 14:52:00,40.6,26.5,29.76,NW,316,2.1,4.0,57,0.00,,,0.00,WUHU21523XXSP,2013-02-28 19:52:00,
2013-02-28 14:57:00,40.8,27.1,29.76,NW,315,3.0,4.0,58,0.00,,,0.00,WUHU21523XXSP,2013-02-28 19:57:00,
2013-02-28 15:07:00,40.6,27.0,29.77,WNW,299,3.9,5.4,58,0.00,,,0.00,WUHU21523XXSP,2013-02-28 20:07:00,
2013-02-28 15:12:00,40.6,27.0,29.77,WNW,292,4.9,5.4,58,0.00,,,0.00,WUHU21523XXSP,2013-02-28 20:12:00,
2013-02-28 15:17:00,40.5,26.8,29.77,WNW,292,0.9,4.9,58,0.00,,,0.00,WUHU21523XXSP,2013-02-28 20:17:00,
2013-02-28 15:22:00,40.5,27.2,29.77,SE,135,1.1,3.6,59,0.00,,,0.00,WUHU21523XXSP,2013-02-28 20:22:00,
2013-02-28 15:27:00,40.3,27.1,29.77,NW,323,2.1,2.7,59,0.00,,,0.00,WUHU21523XXSP,2013-02-28 20:27:00,
2013-02-28 15:32:00,40.3,27.1,29.77,NW,315,7.4,7.4,59,0.00,,,0.00,WUHU21523XXSP,2013-02-28 20:32:00,
2013-02-28 15:37:00,40.3,27.1,29.77,WNW,297,3.1,7.4,59,0.00,,,0.00,WUHU21523XXSP,2013-02-28 20:37:00,
2013-02-28 15:42:00,40.3,27.1,29.78,North,0,2.9,7.4,59,0.00,,,0.00,WUHU21523XXSP,2013-02-28 20:42:00,
2013-02-28 15:52:00,40.1,27.3,29.78,NW,310,3.1,7.6,60,0.00,,,0.00,WUHU21523XXSP,2013-02-28 20:52:00,
2013-02-28 16:02:00,39.9,27.1,29.78,West,270,0.0,6.0,60,0.00,,,0.00,WUHU21523XXSP,2013-02-28 21:02:00,
2013-02-28 16:07:00,39.9,27.1,29.78,NW,315,0.0,2.7,60,0.00,,,0.00,WUHU21523XXSP,2013-02-28 21:07:00,
2013-02-28 16:12:00,39.7,27.3,29.78,NW,315,4.7,4.7,61,0.00,,,0.00,WUHU21523XXSP,2013-02-28 21:12:00,
2013-02-28 16:17:00,39.7,27.3,29.77,NNW,337,5.1,5.1,61,0.00,,,0.00,WUHU21523XXSP,2013-02-28 21:17:00,
2013-02-28 16:22:00,39.7,27.3,29.78,SW,225,6.0,6.0,61,0.00,,,0.00,WUHU21523XXSP,2013-02-28 21:22:00,
2013-02-28 16:27:00,39.7,27.3,29.78,WSW,252,3.1,6.0,61,0.00,,,0.00,WUHU21523XXSP,2013-02-28 21:27:00,
2013-02-28 16:32:00,39.6,27.5,29.78,NNW,337,0.7,5.6,62,0.00,,,0.00,WUHU21523XXSP,2013-02-28 21:32:00,
2013-02-28 16:37:00,39.4,27.4,29.78,NW,315,4.5,5.1,62,0.00,,,0.00,WUHU21523XXSP,2013-02-28 21:37:00,
2013-02-28 16:42:00,39.4,27.4,29.78,SSE,157,1.1,5.1,62,0.00,,,0.00,WUHU21523XXSP,2013-02-28 21:42:00,
2013-02-28 16:47:00,39.4,27.4,29.78,NW,315,1.1,4.3,62,0.00,,,0.00,WUHU21523XXSP,2013-02-28 21:47:00,
2013-02-28 16:52:00,39.2,27.2,29.78,NW,315,4.5,4.5,62,0.00,,,0.00,WUHU21523XXSP,2013-02-28 21:52:00,
2013-02-28 16:57:00,39.2,27.2,29.78,NW,315,5.1,5.1,62,0.00,,,0.00,WUHU21523XXSP,2013-02-28 21:57:00,
2013-02-28 17:02:00,39.2,27.2,29.78,NW,315,3.6,5.1,62,0.00,,,0.00,WUHU21523XXSP,2013-02-28 22:02:00,
2013-02-28 17:07:00,39.0,27.4,29.78,WSW,247,2.0,3.6,63,0.00,,,0.00,WUHU21523XXSP,2013-02-28 22:07:00,
2013-02-28 17:12:00,39.0,27.4,29.78,NW,315,0.7,2.0,63,0.00,,,0.00,WUHU21523XXSP,2013-02-28 22:12:00,
2013-02-28 17:17:00,39.0,27.4,29.79,WNW,302,2.3,4.9,63,0.00,,,0.00,WUHU21523XXSP,2013-02-28 22:17:00,
2013-02-28 17:22:00,39.0,27.4,29.79,NW,315,1.3,4.9,63,0.00,,,0.00,WUHU21523XXSP,2013-02-28 22:22:00,
2013-02-28 17:27:00,39.0,27.4,29.80,WNW,292,1.1,1.3,63,0.00,,,0.00,WUHU21523XXSP,2013-02-28 22:27:00,
2013-02-28 17:32:00,39.0,27.4,29.80,NW,315,2.9,2.9,63,0.00,,,0.00,WUHU21523XXSP,2013-02-28 22:32:00,
2013-02-28 17:37:00,39.0,27.4,29.80,NW,315,2.0,2.9,63,0.00,,,0.00,WUHU21523XXSP,2013-02-28 22:37:00,
2013-02-28 17:42:00,38.8,27.2,29.80,West,270,0.0,2.9,63,0.00,,,0.00,WUHU21523XXSP,2013-02-28 22:42:00,
2013-02-28 17:47:00,38.8,27.6,29.80,West,270,1.6,1.6,64,0.00,,,0.00,WUHU21523XXSP,2013-02-28 22:47:00,
2013-02-28 17:52:00,38.8,27.6,29.81,West,270,1.6,1.6,64,0.00,,,0.00,WUHU21523XXSP,2013-02-28 22:52:00,
2013-02-28 17:57:00,38.5,27.3,29.81,WSW,247,0.0,1.6,64,0.00,,,0.00,WUHU21523XXSP,2013-02-28 22:57:00,
2013-02-28 18:02:00,38.5,27.3,29.81,NW,315,0.0,0.0,64,0.00,,,0.00,WUHU21523XXSP,2013-02-28 23:02:00,
2013-02-28 18:07:00,38.5,27.3,29.81,WNW,292,0.0,0.0,64,0.00,,,0.00,WUHU21523XXSP,2013-02-28 23:07:00,
2013-02-28 18:12:00,38.5,27.7,29.81,NW,315,2.5,2.5,65,0.00,,,0.00,WUHU21523XXSP,2013-02-28 23:12:00,
2013-02-28 18:17:00,38.3,27.5,29.81,NW,315,1.6,2.5,65,0.00,,,0.00,WUHU21523XXSP,2013-02-28 23:17:00,
2013-02-28 18:22:00,38.3,27.5,29.82,NW,315,0.0,2.5,65,0.00,,,0.00,WUHU21523XXSP,2013-02-28 23:22:00,
2013-02-28 18:27:00,38.1,27.3,29.82,NNW,338,3.3,6.5,65,0.00,,,0.00,WUHU21523XXSP,2013-02-28 23:27:00,
2013-02-28 18:32:00,38.1,27.3,29.82,WNW,292,1.8,6.5,65,0.00,,,0.00,WUHU21523XXSP,2013-02-28 23:32:00,
2013-02-28 18:37:00,38.1,27.3,29.82,WNW,292,0.0,6.5,65,0.00,,,0.00,WUHU21523XXSP,2013-02-28 23:37:00,
2013-02-28 18:42:00,38.1,27.3,29.83,NW,315,2.9,4.0,65,0.00,,,0.00,WUHU21523XXSP,2013-02-28 23:42:00,
2013-02-28 18:47:00,38.1,27.3,29.83,NNW,337,0.0,2.9,65,0.00,,,0.00,WUHU21523XXSP,2013-02-28 23:47:00,
2013-02-28 18:52:00,38.1,27.3,29.83,SSW,202,2.0,2.9,65,0.00,,,0.00,WUHU21523XXSP,2013-02-28 23:52:00,
2013-02-28 18:57:00,38.1,27.7,29.83,SW,225,1.6,2.0,66,0.00,,,0.00,WUHU21523XXSP,2013-02-28 23:57:00,
2013-02-28 19:02:00,38.1,27.7,29.83,NNW,337,1.8,1.8,66,0.00,,,0.00,WUHU21523XXSP,2013-03-01 00:02:00,
2013-02-28 19:07:00,38.1,27.7,29.83,NNW,337,0.0,1.8,66,0.00,,,0.00,WUHU21523XXSP,2013-03-01 00:07:00,
2013-02-28 19:12:00,38.1,27.7,29.84,NW,323,1.2,1.6,66,0.00,,,0.00,WUHU21523XXSP,2013-03-01 00:12:00,
2013-02-28 19:17:00,38.1,27.7,29.84,NNW,337,1.1,1.6,66,0.00,,,0.00,WUHU21523XXSP,2013-03-01 00:17:00,
2013-02-28 19:22:00,38.1,27.7,29.84,NNW,337,0.0,1.6,66,0.00,,,0.00,WUHU21523XXSP,2013-03-01 00:22:00,
2013-02-28 19:27:00,38.1,27.7,29.84,West,270,1.3,1.8,66,0.00,,,0.00,WUHU21523XXSP,2013-03-01 00:27:00,
2013-02-28 19:32:00,38.1,27.7,29.84,NW,315,1.3,1.8,66,0.00,,,0.00,WUHU21523XXSP,2013-03-01 00:32:00,
2013-02-28 19:37:00,37.9,27.6,29.84,NW,315,0.0,1.3,66,0.00,,,0.00,WUHU21523XXSP,2013-03-01 00:37:00,
2013-02-28 19:42:00,37.9,27.6,29.85,NW,315,0.9,0.9,66,0.00,,,0.00,WUHU21523XXSP,2013-03-01 00:42:00,
2013-02-28 19:47:00,37.9,27.6,29.84,WNW,292,0.0,0.9,66,0.00,,,0.00,WUHU21523XXSP,2013-03-01 00:47:00,
2013-02-28 19:52:00,37.9,27.6,29.85,WNW,292,0.0,0.9,66,0.00,,,0.00,WUHU21523XXSP,2013-03-01 00:52:00,
2013-02-28 19:57:00,37.9,27.6,29.84,NW,315,2.0,2.0,66,0.00,,,0.00,WUHU21523XXSP,2013-03-01 00:57:00,
2013-02-28 20:02:00,37.9,27.6,29.84,NW,315,4.5,4.5,66,0.00,,,0.00,WUHU21523XXSP,2013-03-01 01:02:00,
2013-02-28 20:07:00,37.9,27.6,29.84,NNW,337,4.7,4.7,66,0.00,,,0.00,WUHU21523XXSP,2013-03-01 01:07:00,
2013-02-28 20:12:00,37.9,27.6,29.84,NW,315,2.0,4.7,66,0.00,,,0.00,WUHU21523XXSP,2013-03-01 01:12:00,
2013-02-28 20:17:00,37.9,27.6,29.84,WNW,292,0.0,2.0,66,0.00,,,0.00,WUHU21523XXSP,2013-03-01 01:17:00,
2013-02-28 20:22:00,37.9,27.6,29.84,West,270,0.0,2.0,66,0.00,,,0.00,WUHU21523XXSP,2013-03-01 01:22:00,
2013-02-28 20:27:00,37.9,27.6,29.84,NW,317,2.4,6.3,66,0.00,,,0.00,WUHU21523XXSP,2013-03-01 01:27:00,
2013-02-28 20:32:00,37.9,27.6,29.84,NNW,337,2.7,6.3,66,0.00,,,0.00,WUHU21523XXSP,2013-03-01 01:32:00,
2013-02-28 20:37:00,37.9,27.6,29.83,NW,315,0.0,2.7,66,0.00,,,0.00,WUHU21523XXSP,2013-03-01 01:37:00,
2013-02-28 20:42:00,37.9,27.6,29.83,NW,305,2.4,4.0,66,0.00,,,0.00,WUHU21523XXSP,2013-03-01 01:42:00,
2013-02-28 20:47:00,37.9,27.6,29.83,NW,315,7.6,7.6,66,0.00,,,0.00,WUHU21523XXSP,2013-03-01 01:47:00,
2013-02-28 20:52:00,37.9,27.6,29.84,NNW,337,4.7,7.6,66,0.00,,,0.00,WUHU21523XXSP,2013-03-01 01:52:00,
2013-02-28 20:57:00,38.1,27.3,29.84,NW,315,3.8,4.7,65,0.00,,,0.00,WUHU21523XXSP,2013-03-01 01:57:00,
2013-02-28 21:02:00,38.1,27.3,29.83,NW,315,2.9,3.8,65,0.00,,,0.00,WUHU21523XXSP,2013-03-01 02:02:00,
2013-02-28 21:07:00,38.1,27.3,29.84,NNW,337,0.7,2.9,65,0.00,,,0.00,WUHU21523XXSP,2013-03-01 02:07:00,
2013-02-28 21:12:00,38.1,27.3,29.84,WNW,287,1.9,2.5,65,0.00,,,0.00,WUHU21523XXSP,2013-03-01 02:12:00,
2013-02-28 21:17:00,38.1,27.3,29.84,WNW,292,0.0,2.5,65,0.00,,,0.00,WUHU21523XXSP,2013-03-01 02:17:00,
2013-02-28 21:22:00,38.1,27.3,29.84,NW,315,0.0,1.6,65,0.00,,,0.00,WUHU21523XXSP,2013-03-01 02:22:00,
2013-02-28 21:27:00,38.1,27.0,29.84,North,0,2.0,2.0,64,0.00,,,0.00,WUHU21523XXSP,2013-03-01 02:27:00,
2013-02-28 21:32:00,38.1,27.0,29.84,NW,315,0.0,2.0,64,0.00,,,0.00,WUHU21523XXSP,2013-03-01 02:32:00,
2013-02-28 21:37:00,38.1,27.0,29.84,NW,315,0.0,0.0,64,0.00,,,0.00,WUHU21523XXSP,2013-03-01 02:37:00,
2013-02-28 21:43:00,38.3,27.1,29.84,NNW,337,2.0,2.0,64,0.00,,,0.00,WUHU21523XXSP,2013-03-01 02:43:00,
2013-02-28 21:52:00,38.5,26.9,29.84,NW,315,1.1,6.5,63,0.00,,,0.00,WUHU21523XXSP,2013-03-01 02:52:00,
2013-02-28 21:57:00,38.5,26.9,29.84,West,270,0.0,6.5,63,0.00,,,0.00,WUHU21523XXSP,2013-03-01 02:57:00,
2013-02-28 22:02:00,38.5,27.3,29.84,NW,315,0.0,0.0,64,0.00,,,0.00,WUHU21523XXSP,2013-03-01 03:02:00,
2013-02-28 22:07:00,38.5,27.3,29.84,West,278,1.1,1.8,64,0.00,,,0.00,WUHU21523XXSP,2013-03-01 03:07:00,
2013-02-28 22:12:00,38.5,27.3,29.84,NW,315,3.9,4.9,64,0.00,,,0.00,WUHU21523XXSP,2013-03-01 03:12:00,
2013-02-28 22:17:00,38.5,27.3,29.84,NW,315,0.0,4.9,64,0.00,,,0.00,WUHU21523XXSP,2013-03-01 03:17:00,
2013-02-28 22:22:00,38.5,27.3,29.84,NW,315,2.0,2.9,64,0.00,,,0.00,WUHU21523XXSP,2013-03-01 03:22:00,
2013-02-28 22:27:00,38.5,27.3,29.84,NW,315,2.7,2.9,64,0.00,,,0.00,WUHU21523XXSP,2013-03-01 03:27:00,
2013-02-28 22:32:00,38.5,27.3,29.84,WNW,292,1.3,2.9,64,0.00,,,0.00,WUHU21523XXSP,2013-03-01 03:32:00,
2013-02-28 22:37:00,38.5,27.3,29.84,NNW,337,5.1,6.9,64,0.00,,,0.00,WUHU21523XXSP,2013-03-01 03:37:00,
2013-02-28 22:42:00,38.5,27.3,29.84,WNW,300,1.3,6.9,64,0.00,,,0.00,WUHU21523XXSP,2013-03-01 03:42:00,
2013-02-28 22:47:00,38.3,27.1,29.84,WNW,300,1.8,3.1,64,0.00,,,0.00,WUHU21523XXSP,2013-03-01 03:47:00,
2013-02-28 22:52:00,38.3,27.5,29.84,NW,315,2.5,3.1,65,0.00,,,0.00,WUHU21523XXSP,2013-03-01 03:52:00,
2013-02-28 22:57:00,38.5,27.7,29.84,NW,315,1.5,2.9,65,0.00,,,0.00,WUHU21523XXSP,2013-03-01 03:57:00,
2013-02-28 23:02:00,38.3,27.5,29.83,NNW,337,2.9,2.9,65,0.00,,,0.00,WUHU21523XXSP,2013-03-01 04:02:00,
2013-02-28 23:07:00,38.5,27.7,29.84,NW,323,4.6,5.8,65,0.00,,,0.00,WUHU21523XXSP,2013-03-01 04:07:00,
2013-02-28 23:12:00,38.3,27.5,29.84,NNW,337,3.1,5.8,65,0.00,,,0.00,WUHU21523XXSP,2013-03-01 04:12:00,
2013-02-28 23:17:00,38.3,27.5,29.85,NW,315,3.1,3.1,65,0.00,,,0.00,WUHU21523XXSP,2013-03-01 04:17:00,
2013-02-28 23:22:00,38.3,27.5,29.85,NNW,337,4.0,4.0,65,0.00,,,0.00,WUHU21523XXSP,2013-03-01 04:22:00,
2013-02-28 23:27:00,38.3,27.5,29.85,NNE,22,2.2,4.3,65,0.00,,,0.00,WUHU21523XXSP,2013-03-01 04:27:00,
2013-02-28 23:32:00,38.3,27.5,29.84,NNW,337,1.6,4.3,65,0.00,,,0.00,WUHU21523XXSP,2013-03-01 04:32:00,
2013-02-28 23:37:00,38.3,27.5,29.85,NNW,337,7.2,7.2,65,0.00,,,0.00,WUHU21523XXSP,2013-03-01 04:37:00,
2013-02-28 23:42:00,38.5,27.7,29.84,NW,315,1.9,7.2,65,0.00,,,0.00,WUHU21523XXSP,2013-03-01 04:42:00,
2013-02-28 23:47:00,38.5,27.7,29.84,NW,315,0.0,3.4,65,0.00,,,0.00,WUHU21523XXSP,2013-03-01 04:47:00,
2013-02-28 23:52:00,38.5,28.0,29.84,NW,315,2.2,2.9,66,0.00,,,0.00,WUHU21523XXSP,2013-03-01 04:52:00,
2013-02-28 23:57:00,38.5,28.0,29.83,NW,317,5.7,10.1,66,0.00,,,0.00,WUHU21523XXSP,2013-03-01 04:57:00,